This is the latest recevied weather packets stored in our database for station/object F4IXV-10. If no packets are shown the sender has not sent any weather packets the latest 1 day(s).
| Time | Temp. | Humidity | Pressure | Rain* | Wind** | Luminosity | Snow |
|---|---|---|---|---|---|---|---|
| 1777727266 | 27.22° C | 33% | 990 hPa | - | - | - | - |
| 1777726661 | 27.22° C | 33% | 990 hPa | - | - | - | - |
| 1777726056 | 26.67° C | 33% | 991 hPa | - | - | - | - |
| 1777725451 | 26.67° C | 34% | 991 hPa | - | - | - | - |
| 1777724846 | 26.11° C | 34% | 991 hPa | - | - | - | - |
| 1777724241 | 26.11° C | 35% | 991 hPa | - | - | - | - |
| 1777723636 | 25.56° C | 35% | 991 hPa | - | - | - | - |
| 1777723031 | 25.56° C | 35% | 991 hPa | - | - | - | - |
| 1777722426 | 25.56° C | 35% | 991 hPa | - | - | - | - |
| 1777721821 | 25.56° C | 35% | 992 hPa | - | - | - | - |
| 1777721216 | 26.11° C | 33% | 992 hPa | - | - | - | - |
| 1777720611 | 34.44° C | 22% | 992 hPa | - | - | - | - |
| 1777720006 | 36.11° C | 21% | 992 hPa | - | - | - | - |
| 1777719401 | 36.11° C | 21% | 992 hPa | - | - | - | - |
| 1777718796 | 36.11° C | 21% | 992 hPa | - | - | - | - |
| 1777718191 | 35.56° C | 21% | 992 hPa | - | - | - | - |
| 1777717586 | 35.56° C | 21% | 992 hPa | - | - | - | - |
| 1777716981 | 35° C | 21% | 992 hPa | - | - | - | - |
| 1777716376 | 33.33° C | 23% | 993 hPa | - | - | - | - |
| 1777715771 | 22.78° C | 36% | 993 hPa | - | - | - | - |
| 1777715166 | 22.22° C | 37% | 993 hPa | - | - | - | - |
| 1777714561 | 21.67° C | 37% | 993 hPa | - | - | - | - |
| 1777713956 | 21.11° C | 37% | 993 hPa | - | - | - | - |
| 1777713351 | 21.11° C | 37% | 993 hPa | - | - | - | - |
| 1777712746 | 20.56° C | 38% | 993 hPa | - | - | - | - |
* Rain since midnight (hover to see other rain measurements)
** Current wind speed in m/s (hover to see current wind gust speed)